sensor_id;sensor_type;location;lat;lon;timestamp;pressure;altitude;pressure_sealevel;temperature;humidity
64095;BME280;50353;51.420;5.682;2023-04-02T00:00:11;100711.25;;;7.94;100.00
64095;BME280;50353;51.420;5.682;2023-04-02T00:05:28;100717.13;;;7.99;100.00
64095;BME280;50353;51.420;5.682;2023-04-02T00:08:18;100720.31;;;7.88;100.00
64095;BME280;50353;51.420;5.682;2023-04-02T00:10:47;100724.56;;;7.91;100.00
64095;BME280;50353;51.420;5.682;2023-04-02T00:15:41;100735.22;;;7.88;100.00
64095;BME280;50353;51.420;5.682;2023-04-02T00:18:12;100736.31;;;7.66;100.00
64095;BME280;50353;51.420;5.682;2023-04-02T00:20:40;100740.97;;;7.61;100.00
64095;BME280;50353;51.420;5.682;2023-04-02T00:23:10;100742.97;;;7.56;100.00
64095;BME280;50353;51.420;5.682;2023-04-02T00:25:38;100753.66;;;7.53;100.00
64095;BME280;50353;51.420;5.682;2023-04-02T00:28:12;100757.28;;;7.85;99.59
64095;BME280;50353;51.420;5.682;2023-04-02T00:30:54;100755.69;;;7.83;100.00
64095;BME280;50353;51.420;5.682;2023-04-02T00:33:23;100758.31;;;7.65;100.00
64095;BME280;50353;51.420;5.682;2023-04-02T00:35:51;100764.66;;;7.78;100.00
64095;BME280;50353;51.420;5.682;2023-04-02T00:38:21;100766.44;;;7.78;100.00
64095;BME280;50353;51.420;5.682;2023-04-02T00:40:48;100771.22;;;7.70;100.00
64095;BME280;50353;51.420;5.682;2023-04-02T00:43:15;100765.66;;;7.58;100.00
64095;BME280;50353;51.420;5.682;2023-04-02T00:45:42;100777.31;;;7.53;100.00
64095;BME280;50353;51.420;5.682;2023-04-02T00:51:22;100779.72;;;7.57;100.00
64095;BME280;50353;51.420;5.682;2023-04-02T00:53:51;100792.38;;;7.86;100.00
64095;BME280;50353;51.420;5.682;2023-04-02T00:56:23;100792.59;;;7.64;100.00
64095;BME280;50353;51.420;5.682;2023-04-02T00:58:55;100789.88;;;8.00;99.17
64095;BME280;50353;51.420;5.682;2023-04-02T01:01:27;100803.34;;;7.76;100.00
64095;BME280;50353;51.420;5.682;2023-04-02T01:03:56;100801.31;;;7.64;100.00
64095;BME280;50353;51.420;5.682;2023-04-02T01:06:25;100815.56;;;7.41;100.00
64095;BME280;50353;51.420;5.682;2023-04-02T01:12:02;100816.38;;;7.60;99.59
64095;BME280;50353;51.420;5.682;2023-04-02T01:14:59;100825.50;;;7.53;100.00
64095;BME280;50353;51.420;5.682;2023-04-02T01:17:36;100834.03;;;7.58;99.77
64095;BME280;50353;51.420;5.682;2023-04-02T01:22:53;100844.75;;;7.54;100.00
64095;BME280;50353;51.420;5.682;2023-04-02T01:25:25;100849.53;;;7.45;100.00
64095;BME280;50353;51.420;5.682;2023-04-02T01:27:59;100848.25;;;7.73;100.00
64095;BME280;50353;51.420;5.682;2023-04-02T01:30:30;100853.22;;;7.41;100.00
64095;BME280;50353;51.420;5.682;2023-04-02T01:32:56;100845.50;;;7.19;100.00
64095;BME280;50353;51.420;5.682;2023-04-02T01:35:23;100863.13;;;7.36;100.00
64095;BME280;50353;51.420;5.682;2023-04-02T01:38:05;100862.84;;;7.23;100.00
64095;BME280;50353;51.420;5.682;2023-04-02T01:41:05;100859.72;;;7.53;100.00
64095;BME280;50353;51.420;5.682;2023-04-02T01:43:37;100869.44;;;7.13;100.00
64095;BME280;50353;51.420;5.682;2023-04-02T01:46:23;100875.13;;;7.61;98.46
64095;BME280;50353;51.420;5.682;2023-04-02T01:48:51;100876.63;;;7.28;99.70
64095;BME280;50353;51.420;5.682;2023-04-02T01:51:30;100885.84;;;7.18;99.14
64095;BME280;50353;51.420;5.682;2023-04-02T01:53:58;100892.53;;;7.06;99.73
64095;BME280;50353;51.420;5.682;2023-04-02T01:56:26;100884.19;;;7.36;98.47
64095;BME280;50353;51.420;5.682;2023-04-02T01:58:51;100896.50;;;7.15;99.60
64095;BME280;50353;51.420;5.682;2023-04-02T02:01:19;100896.69;;;7.50;97.53
64095;BME280;50353;51.420;5.682;2023-04-02T02:03:45;100912.31;;;7.34;98.61
64095;BME280;50353;51.420;5.682;2023-04-02T02:06:13;100917.09;;;7.05;97.75
64095;BME280;50353;51.420;5.682;2023-04-02T02:08:49;100917.75;;;7.10;96.99
64095;BME280;50353;51.420;5.682;2023-04-02T02:11:24;100928.28;;;7.10;95.46
64095;BME280;50353;51.420;5.682;2023-04-02T02:13:58;100922.34;;;7.05;97.62
64095;BME280;50353;51.420;5.682;2023-04-02T02:16:25;100929.69;;;7.18;96.73
64095;BME280;50353;51.420;5.682;2023-04-02T02:18:52;100933.63;;;7.28;97.05
64095;BME280;50353;51.420;5.682;2023-04-02T02:21:31;100945.94;;;7.07;96.88
64095;BME280;50353;51.420;5.682;2023-04-02T02:24:02;100951.06;;;6.89;98.88
64095;BME280;50353;51.420;5.682;2023-04-02T02:26:30;100944.84;;;6.71;99.76
64095;BME280;50353;51.420;5.682;2023-04-02T02:29:00;100954.97;;;6.81;99.93
64095;BME280;50353;51.420;5.682;2023-04-02T02:31:30;100965.13;;;7.09;97.95
64095;BME280;50353;51.420;5.682;2023-04-02T02:34:04;100967.03;;;6.85;97.47
64095;BME280;50353;51.420;5.682;2023-04-02T02:36:47;100970.06;;;6.75;97.15
64095;BME280;50353;51.420;5.682;2023-04-02T02:39:25;100972.38;;;7.04;95.80
64095;BME280;50353;51.420;5.682;2023-04-02T02:41:59;100981.94;;;6.84;96.76
64095;BME280;50353;51.420;5.682;2023-04-02T02:44:28;100984.78;;;6.80;96.97
64095;BME280;50353;51.420;5.682;2023-04-02T02:49:39;100996.13;;;6.80;96.35
64095;BME280;50353;51.420;5.682;2023-04-02T02:52:14;101002.84;;;6.87;95.03
64095;BME280;50353;51.420;5.682;2023-04-02T02:54:44;101006.59;;;6.82;94.61
64095;BME280;50353;51.420;5.682;2023-04-02T02:57:14;101019.44;;;6.67;96.16
64095;BME280;50353;51.420;5.682;2023-04-02T02:59:41;101019.75;;;6.59;97.14
64095;BME280;50353;51.420;5.682;2023-04-02T03:02:07;101023.28;;;6.58;96.63
64095;BME280;50353;51.420;5.682;2023-04-02T03:04:33;101025.00;;;6.82;96.01
64095;BME280;50353;51.420;5.682;2023-04-02T03:07:02;101021.22;;;6.67;95.59
64095;BME280;50353;51.420;5.682;2023-04-02T03:09:37;101033.66;;;6.84;96.28
64095;BME280;50353;51.420;5.682;2023-04-02T03:12:27;101041.44;;;6.42;96.94
64095;BME280;50353;51.420;5.682;2023-04-02T03:15:15;101037.28;;;6.59;96.84
64095;BME280;50353;51.420;5.682;2023-04-02T03:20:32;101044.06;;;6.42;96.95
64095;BME280;50353;51.420;5.682;2023-04-02T03:25:38;101058.03;;;6.87;95.35
64095;BME280;50353;51.420;5.682;2023-04-02T03:28:12;101068.84;;;6.80;94.84
64095;BME280;50353;51.420;5.682;2023-04-02T03:30:56;101073.16;;;6.60;95.79
64095;BME280;50353;51.420;5.682;2023-04-02T03:33:34;101074.84;;;6.61;96.38
64095;BME280;50353;51.420;5.682;2023-04-02T03:38:40;101093.75;;;6.47;95.87
64095;BME280;50353;51.420;5.682;2023-04-02T03:41:15;101087.19;;;6.59;94.88
64095;BME280;50353;51.420;5.682;2023-04-02T03:43:46;101099.22;;;6.65;95.34
64095;BME280;50353;51.420;5.682;2023-04-02T03:46:25;101105.25;;;6.45;96.10
64095;BME280;50353;51.420;5.682;2023-04-02T03:48:55;101121.88;;;6.67;95.50
64095;BME280;50353;51.420;5.682;2023-04-02T03:54:25;101132.25;;;6.70;96.83
64095;BME280;50353;51.420;5.682;2023-04-02T03:56:52;101134.06;;;6.46;97.36
64095;BME280;50353;51.420;5.682;2023-04-02T04:04:52;101143.50;;;6.52;97.12
64095;BME280;50353;51.420;5.682;2023-04-02T04:07:28;101152.50;;;6.45;96.21
64095;BME280;50353;51.420;5.682;2023-04-02T04:09:56;101152.84;;;6.59;96.73
64095;BME280;50353;51.420;5.682;2023-04-02T04:12:35;101162.16;;;6.44;97.29
64095;BME280;50353;51.420;5.682;2023-04-02T04:15:18;101167.63;;;5.89;97.41
64095;BME280;50353;51.420;5.682;2023-04-02T04:21:22;101181.16;;;6.27;95.42
64095;BME280;50353;51.420;5.682;2023-04-02T04:23:31;101187.41;;;6.24;96.45
64095;BME280;50353;51.420;5.682;2023-04-02T04:26:04;101186.34;;;6.05;96.66
64095;BME280;50353;51.420;5.682;2023-04-02T04:28:46;101196.75;;;6.32;94.90
64095;BME280;50353;51.420;5.682;2023-04-02T04:31:27;101204.22;;;6.19;94.98
64095;BME280;50353;51.420;5.682;2023-04-02T04:33:59;101207.66;;;6.21;95.34
64095;BME280;50353;51.420;5.682;2023-04-02T04:36:36;101214.25;;;6.31;94.88
64095;BME280;50353;51.420;5.682;2023-04-02T04:39:12;101217.34;;;6.19;95.33
64095;BME280;50353;51.420;5.682;2023-04-02T04:41:40;101227.88;;;6.17;95.78
64095;BME280;50353;51.420;5.682;2023-04-02T04:46:51;101234.81;;;6.20;96.58
64095;BME280;50353;51.420;5.682;2023-04-02T04:49:27;101245.09;;;6.26;96.49
64095;BME280;50353;51.420;5.682;2023-04-02T04:51:58;101243.44;;;6.47;94.97
64095;BME280;50353;51.420;5.682;2023-04-02T04:54:26;101261.78;;;6.49;95.60
64095;BME280;50353;51.420;5.682;2023-04-02T04:56:59;101264.75;;;6.39;95.23
64095;BME280;50353;51.420;5.682;2023-04-02T04:59:26;101273.69;;;6.34;96.12
64095;BME280;50353;51.420;5.682;2023-04-02T05:02:00;101269.88;;;6.17;96.11
64095;BME280;50353;51.420;5.682;2023-04-02T05:04:34;101276.06;;;6.16;95.73
64095;BME280;50353;51.420;5.682;2023-04-02T05:07:04;101274.34;;;6.15;95.34
64095;BME280;50353;51.420;5.682;2023-04-02T05:12:43;101281.81;;;6.01;97.05
64095;BME280;50353;51.420;5.682;2023-04-02T05:15:14;101286.69;;;5.85;96.71
64095;BME280;50353;51.420;5.682;2023-04-02T05:18:12;101296.06;;;6.20;95.75
64095;BME280;50353;51.420;5.682;2023-04-02T05:21:03;101304.53;;;6.02;95.47
64095;BME280;50353;51.420;5.682;2023-04-02T05:23:42;101312.19;;;5.81;97.90
64095;BME280;50353;51.420;5.682;2023-04-02T05:34:07;101332.16;;;6.14;96.74
64095;BME280;50353;51.420;5.682;2023-04-02T05:36:34;101336.28;;;5.66;97.48
64095;BME280;50353;51.420;5.682;2023-04-02T05:38:59;101347.81;;;5.60;96.42
64095;BME280;50353;51.420;5.682;2023-04-02T05:41:31;101348.09;;;5.79;96.14
64095;BME280;50353;51.420;5.682;2023-04-02T05:44:05;101354.09;;;5.83;95.21
64095;BME280;50353;51.420;5.682;2023-04-02T05:46:39;101365.56;;;5.80;93.25
64095;BME280;50353;51.420;5.682;2023-04-02T05:49:15;101359.78;;;5.97;94.50
64095;BME280;50353;51.420;5.682;2023-04-02T05:51:44;101359.19;;;6.16;92.49
64095;BME280;50353;51.420;5.682;2023-04-02T05:57:13;101372.94;;;5.96;93.47
64095;BME280;50353;51.420;5.682;2023-04-02T05:59:43;101377.44;;;5.64;94.46
64095;BME280;50353;51.420;5.682;2023-04-02T06:02:21;101379.72;;;5.74;93.92
64095;BME280;50353;51.420;5.682;2023-04-02T06:04:58;101385.78;;;5.48;92.21
64095;BME280;50353;51.420;5.682;2023-04-02T06:07:33;101392.91;;;5.43;93.57
64095;BME280;50353;51.420;5.682;2023-04-02T06:10:09;101405.44;;;5.63;93.75
64095;BME280;50353;51.420;5.682;2023-04-02T06:12:41;101412.31;;;5.67;95.64
64095;BME280;50353;51.420;5.682;2023-04-02T06:15:19;101415.19;;;5.58;95.04
64095;BME280;50353;51.420;5.682;2023-04-02T06:20:33;101429.69;;;5.70;93.77
64095;BME280;50353;51.420;5.682;2023-04-02T06:23:03;101442.53;;;5.79;93.15
64095;BME280;50353;51.420;5.682;2023-04-02T06:26:06;101443.41;;;5.80;93.14
64095;BME280;50353;51.420;5.682;2023-04-02T06:28:44;101454.06;;;5.73;92.85
64095;BME280;50353;51.420;5.682;2023-04-02T06:31:38;101456.81;;;5.70;92.76
64095;BME280;50353;51.420;5.682;2023-04-02T06:34:13;101459.06;;;5.83;93.38
64095;BME280;50353;51.420;5.682;2023-04-02T06:36:39;101460.41;;;5.36;93.28
64095;BME280;50353;51.420;5.682;2023-04-02T06:39:09;101467.19;;;5.44;94.01
64095;BME280;50353;51.420;5.682;2023-04-02T06:41:35;101474.66;;;5.57;93.97
64095;BME280;50353;51.420;5.682;2023-04-02T06:44:10;101482.50;;;5.87;92.44
64095;BME280;50353;51.420;5.682;2023-04-02T06:46:41;101481.97;;;5.76;92.35
64095;BME280;50353;51.420;5.682;2023-04-02T06:49:22;101488.63;;;5.88;90.78
64095;BME280;50353;51.420;5.682;2023-04-02T06:51:49;101498.59;;;5.45;92.82
64095;BME280;50353;51.420;5.682;2023-04-02T06:54:17;101507.00;;;5.58;92.52
64095;BME280;50353;51.420;5.682;2023-04-02T06:56:49;101512.56;;;5.77;91.81
64095;BME280;50353;51.420;5.682;2023-04-02T06:59:15;101516.41;;;5.95;91.08
64095;BME280;50353;51.420;5.682;2023-04-02T07:01:47;101514.94;;;5.85;91.92
64095;BME280;50353;51.420;5.682;2023-04-02T07:04:14;101527.06;;;5.89;90.67
64095;BME280;50353;51.420;5.682;2023-04-02T07:06:40;101530.19;;;6.03;88.79
64095;BME280;50353;51.420;5.682;2023-04-02T07:09:06;101537.72;;;5.84;89.61
64095;BME280;50353;51.420;5.682;2023-04-02T07:11:32;101540.91;;;5.64;90.09
64095;BME280;50353;51.420;5.682;2023-04-02T07:13:57;101543.91;;;5.50;89.11
64095;BME280;50353;51.420;5.682;2023-04-02T07:16:24;101550.69;;;5.59;88.38
64095;BME280;50353;51.420;5.682;2023-04-02T07:18:51;101565.59;;;5.24;88.57
64095;BME280;50353;51.420;5.682;2023-04-02T07:21:17;101563.75;;;5.61;87.94
64095;BME280;50353;51.420;5.682;2023-04-02T07:23:42;101561.56;;;5.44;90.39
64095;BME280;50353;51.420;5.682;2023-04-02T07:26:12;101566.41;;;5.59;88.31
64095;BME280;50353;51.420;5.682;2023-04-02T07:28:38;101565.97;;;5.43;89.23
64095;BME280;50353;51.420;5.682;2023-04-02T07:31:15;101571.06;;;5.15;89.05
64095;BME280;50353;51.420;5.682;2023-04-02T07:33:41;101584.19;;;5.48;88.09
64095;BME280;50353;51.420;5.682;2023-04-02T07:36:13;101591.72;;;5.27;88.29
64095;BME280;50353;51.420;5.682;2023-04-02T07:38:38;101601.66;;;5.14;87.46
64095;BME280;50353;51.420;5.682;2023-04-02T07:41:05;101604.41;;;5.44;86.87
64095;BME280;50353;51.420;5.682;2023-04-02T07:43:31;101605.63;;;5.64;86.00
64095;BME280;50353;51.420;5.682;2023-04-02T07:45:56;101613.03;;;5.48;87.03
64095;BME280;50353;51.420;5.682;2023-04-02T07:48:21;101630.00;;;5.67;85.98
64095;BME280;50353;51.420;5.682;2023-04-02T07:50:47;101626.78;;;5.23;87.37
64095;BME280;50353;51.420;5.682;2023-04-02T07:53:29;101635.78;;;5.13;87.84
64095;BME280;50353;51.420;5.682;2023-04-02T07:55:57;101641.28;;;5.00;87.73
64095;BME280;50353;51.420;5.682;2023-04-02T07:58:22;101639.53;;;5.37;85.36
64095;BME280;50353;51.420;5.682;2023-04-02T08:00:48;101636.28;;;5.27;84.34
64095;BME280;50353;51.420;5.682;2023-04-02T08:03:13;101641.56;;;5.25;85.14
64095;BME280;50353;51.420;5.682;2023-04-02T08:05:38;101646.31;;;5.79;85.00
64095;BME280;50353;51.420;5.682;2023-04-02T08:08:04;101659.13;;;5.22;84.36
64095;BME280;50353;51.420;5.682;2023-04-02T08:10:30;101661.22;;;5.44;83.09
64095;BME280;50353;51.420;5.682;2023-04-02T08:12:55;101674.53;;;5.36;83.51
64095;BME280;50353;51.420;5.682;2023-04-02T08:15:21;101674.78;;;5.25;84.00
64095;BME280;50353;51.420;5.682;2023-04-02T08:17:46;101680.94;;;5.24;84.82
64095;BME280;50353;51.420;5.682;2023-04-02T08:20:20;101677.56;;;5.53;84.01
64095;BME280;50353;51.420;5.682;2023-04-02T08:22:47;101683.88;;;5.46;83.14
64095;BME280;50353;51.420;5.682;2023-04-02T08:25:13;101685.06;;;4.97;86.37
64095;BME280;50353;51.420;5.682;2023-04-02T08:27:38;101699.72;;;5.41;83.58
64095;BME280;50353;51.420;5.682;2023-04-02T08:30:06;101700.66;;;5.39;84.26
64095;BME280;50353;51.420;5.682;2023-04-02T08:32:32;101699.09;;;5.66;85.22
64095;BME280;50353;51.420;5.682;2023-04-02T08:34:57;101709.47;;;5.71;83.05
64095;BME280;50353;51.420;5.682;2023-04-02T08:37:22;101718.59;;;5.20;83.30
64095;BME280;50353;51.420;5.682;2023-04-02T08:39:48;101720.25;;;5.95;82.70
64095;BME280;50353;51.420;5.682;2023-04-02T08:45:33;101727.13;;;5.64;84.54
64095;BME280;50353;51.420;5.682;2023-04-02T08:48:00;101730.88;;;5.54;82.16
64095;BME280;50353;51.420;5.682;2023-04-02T08:50:29;101739.56;;;5.56;82.06
64095;BME280;50353;51.420;5.682;2023-04-02T08:52:55;101744.94;;;5.51;81.87
64095;BME280;50353;51.420;5.682;2023-04-02T08:55:35;101739.50;;;5.93;81.91
64095;BME280;50353;51.420;5.682;2023-04-02T08:58:12;101754.81;;;5.76;81.02
64095;BME280;50353;51.420;5.682;2023-04-02T09:00:43;101772.16;;;5.46;80.31
64095;BME280;50353;51.420;5.682;2023-04-02T09:03:13;101764.50;;;5.36;80.50
64095;BME280;50353;51.420;5.682;2023-04-02T09:05:43;101759.09;;;5.80;79.56
64095;BME280;50353;51.420;5.682;2023-04-02T09:08:20;101767.41;;;5.98;80.45
64095;BME280;50353;51.420;5.682;2023-04-02T09:13:26;101780.78;;;5.87;80.27
64095;BME280;50353;51.420;5.682;2023-04-02T09:15:59;101781.53;;;5.92;81.20
64095;BME280;50353;51.420;5.682;2023-04-02T09:18:27;101788.91;;;5.40;81.14
64095;BME280;50353;51.420;5.682;2023-04-02T09:20:54;101789.84;;;5.73;80.78
64095;BME280;50353;51.420;5.682;2023-04-02T09:23:22;101801.81;;;5.85;80.95
64095;BME280;50353;51.420;5.682;2023-04-02T09:25:50;101801.91;;;5.81;81.01
64095;BME280;50353;51.420;5.682;2023-04-02T09:28:16;101806.78;;;5.96;81.01
64095;BME280;50353;51.420;5.682;2023-04-02T09:30:55;101808.63;;;5.56;81.91
64095;BME280;50353;51.420;5.682;2023-04-02T09:33:50;101824.84;;;6.10;80.46
64095;BME280;50353;51.420;5.682;2023-04-02T09:36:37;101818.06;;;6.01;80.69
64095;BME280;50353;51.420;5.682;2023-04-02T09:39:17;101836.72;;;6.25;78.59
64095;BME280;50353;51.420;5.682;2023-04-02T09:41:43;101833.97;;;5.93;80.12
64095;BME280;50353;51.420;5.682;2023-04-02T09:44:12;101830.09;;;5.72;80.60
64095;BME280;50353;51.420;5.682;2023-04-02T09:46:47;101846.78;;;6.07;79.60
64095;BME280;50353;51.420;5.682;2023-04-02T09:49:14;101850.41;;;6.36;78.46
64095;BME280;50353;51.420;5.682;2023-04-02T09:51:42;101852.09;;;6.39;78.99
64095;BME280;50353;51.420;5.682;2023-04-02T09:54:13;101863.94;;;6.21;78.64
64095;BME280;50353;51.420;5.682;2023-04-02T09:56:40;101862.56;;;6.06;80.20
64095;BME280;50353;51.420;5.682;2023-04-02T10:01:39;101871.78;;;5.86;80.37
64095;BME280;50353;51.420;5.682;2023-04-02T10:13:07;101888.38;;;5.87;79.26
64095;BME280;50353;51.420;5.682;2023-04-02T10:16:02;101894.03;;;6.07;79.41
64095;BME280;50353;51.420;5.682;2023-04-02T10:18:45;101902.13;;;6.34;79.08
64095;BME280;50353;51.420;5.682;2023-04-02T10:21:17;101908.63;;;6.54;78.45
64095;BME280;50353;51.420;5.682;2023-04-02T10:23:44;101911.72;;;6.35;79.31
64095;BME280;50353;51.420;5.682;2023-04-02T10:26:24;101918.88;;;5.91;79.32
64095;BME280;50353;51.420;5.682;2023-04-02T10:29:14;101921.59;;;6.25;77.26
64095;BME280;50353;51.420;5.682;2023-04-02T10:31:58;101916.13;;;5.99;80.62
64095;BME280;50353;51.420;5.682;2023-04-02T10:37:33;101921.50;;;6.30;79.88
64095;BME280;50353;51.420;5.682;2023-04-02T10:40:15;101924.94;;;5.95;78.79
64095;BME280;50353;51.420;5.682;2023-04-02T10:45:45;101935.59;;;5.87;80.58
64095;BME280;50353;51.420;5.682;2023-04-02T10:48:31;101932.81;;;5.93;80.12
64095;BME280;50353;51.420;5.682;2023-04-02T10:51:10;101937.84;;;6.04;80.35
64095;BME280;50353;51.420;5.682;2023-04-02T10:53:50;101938.81;;;6.37;79.06
64095;BME280;50353;51.420;5.682;2023-04-02T10:56:21;101956.22;;;6.41;77.67
64095;BME280;50353;51.420;5.682;2023-04-02T11:01:19;101952.06;;;6.67;78.48
64095;BME280;50353;51.420;5.682;2023-04-02T11:03:54;101953.06;;;6.27;77.95
64095;BME280;50353;51.420;5.682;2023-04-02T11:06:49;101954.47;;;6.40;78.23
64095;BME280;50353;51.420;5.682;2023-04-02T11:09:20;101966.09;;;6.66;78.33
64095;BME280;50353;51.420;5.682;2023-04-02T11:11:50;101966.94;;;6.32;76.84
64095;BME280;50353;51.420;5.682;2023-04-02T11:14:23;101978.06;;;6.78;76.77
64095;BME280;50353;51.420;5.682;2023-04-02T11:16:49;101976.53;;;6.69;77.57
64095;BME280;50353;51.420;5.682;2023-04-02T11:26:47;101991.94;;;6.49;78.30
64095;BME280;50353;51.420;5.682;2023-04-02T11:29:23;101992.16;;;6.75;77.68
64095;BME280;50353;51.420;5.682;2023-04-02T11:39:57;102001.81;;;6.01;78.00
64095;BME280;50353;51.420;5.682;2023-04-02T11:42:34;102009.91;;;6.66;77.73
64095;BME280;50353;51.420;5.682;2023-04-02T11:50:31;102022.47;;;6.15;76.96
64095;BME280;50353;51.420;5.682;2023-04-02T11:53:50;102027.41;;;6.65;76.50
64095;BME280;50353;51.420;5.682;2023-04-02T11:56:19;102036.81;;;6.75;76.53
64095;BME280;50353;51.420;5.682;2023-04-02T12:04:00;102045.72;;;6.70;77.17
64095;BME280;50353;51.420;5.682;2023-04-02T12:09:17;102049.16;;;6.72;76.26
64095;BME280;50353;51.420;5.682;2023-04-02T12:11:43;102054.84;;;6.55;78.11
64095;BME280;50353;51.420;5.682;2023-04-02T12:14:30;102057.38;;;6.58;78.08
64095;BME280;50353;51.420;5.682;2023-04-02T12:16:56;102062.41;;;6.67;75.88
64095;BME280;50353;51.420;5.682;2023-04-02T12:19:22;102073.72;;;7.07;75.23
64095;BME280;50353;51.420;5.682;2023-04-02T12:21:50;102073.47;;;6.80;75.66
64095;BME280;50353;51.420;5.682;2023-04-02T12:24:20;102078.56;;;7.22;75.56
64095;BME280;50353;51.420;5.682;2023-04-02T12:26:47;102086.66;;;6.79;75.75
64095;BME280;50353;51.420;5.682;2023-04-02T12:29:20;102089.91;;;6.90;75.85
64095;BME280;50353;51.420;5.682;2023-04-02T12:31:47;102091.63;;;6.91;76.09
64095;BME280;50353;51.420;5.682;2023-04-02T12:34:18;102098.16;;;7.10;76.34
64095;BME280;50353;51.420;5.682;2023-04-02T12:39:17;102103.66;;;7.01;78.38
64095;BME280;50353;51.420;5.682;2023-04-02T12:41:42;102101.09;;;6.60;77.19
64095;BME280;50353;51.420;5.682;2023-04-02T12:44:16;102112.94;;;6.79;75.98
64095;BME280;50353;51.420;5.682;2023-04-02T12:46:42;102110.88;;;6.93;77.02
64095;BME280;50353;51.420;5.682;2023-04-02T12:51:56;102116.03;;;6.60;76.22
64095;BME280;50353;51.420;5.682;2023-04-02T12:54:22;102130.25;;;6.89;74.08
64095;BME280;50353;51.420;5.682;2023-04-02T12:56:48;102121.25;;;6.62;75.15
64095;BME280;50353;51.420;5.682;2023-04-02T12:59:34;102123.44;;;6.41;74.36
64095;BME280;50353;51.420;5.682;2023-04-02T13:02:02;102121.53;;;6.49;74.86
64095;BME280;50353;51.420;5.682;2023-04-02T13:04:46;102124.97;;;6.51;74.49
64095;BME280;50353;51.420;5.682;2023-04-02T13:07:16;102117.47;;;6.72;74.56
64095;BME280;50353;51.420;5.682;2023-04-02T13:09:46;102121.00;;;6.72;72.74
64095;BME280;50353;51.420;5.682;2023-04-02T13:14:56;102120.44;;;7.30;71.36
64095;BME280;50353;51.420;5.682;2023-04-02T13:22:57;102104.47;;;7.71;69.31
64095;BME280;50353;51.420;5.682;2023-04-02T13:25:30;102111.25;;;7.47;70.27
64095;BME280;50353;51.420;5.682;2023-04-02T13:27:56;102116.88;;;7.66;68.58
64095;BME280;50353;51.420;5.682;2023-04-02T13:30:24;102127.53;;;7.26;70.13
64095;BME280;50353;51.420;5.682;2023-04-02T13:32:50;102129.34;;;7.59;70.79
64095;BME280;50353;51.420;5.682;2023-04-02T13:35:15;102127.66;;;7.88;70.26
64095;BME280;50353;51.420;5.682;2023-04-02T13:37:41;102122.84;;;8.04;69.14
64095;BME280;50353;51.420;5.682;2023-04-02T13:40:07;102119.06;;;8.42;68.53
64095;BME280;50353;51.420;5.682;2023-04-02T13:42:33;102125.88;;;7.90;68.15
64095;BME280;50353;51.420;5.682;2023-04-02T13:44:58;102126.97;;;8.42;66.97
64095;BME280;50353;51.420;5.682;2023-04-02T13:47:24;102127.78;;;8.15;66.53
64095;BME280;50353;51.420;5.682;2023-04-02T13:49:49;102141.56;;;8.54;66.66
64095;BME280;50353;51.420;5.682;2023-04-02T13:52:15;102134.72;;;8.49;66.73
64095;BME280;50353;51.420;5.682;2023-04-02T13:54:47;102132.75;;;8.25;66.94
64095;BME280;50353;51.420;5.682;2023-04-02T13:57:13;102142.44;;;8.25;67.86
64095;BME280;50353;51.420;5.682;2023-04-02T13:59:39;102134.91;;;8.71;67.46
64095;BME280;50353;51.420;5.682;2023-04-02T14:02:08;102142.47;;;8.53;68.71
64095;BME280;50353;51.420;5.682;2023-04-02T14:04:39;102145.78;;;8.30;67.22
64095;BME280;50353;51.420;5.682;2023-04-02T14:10:26;102160.94;;;8.82;64.38
64095;BME280;50353;51.420;5.682;2023-04-02T14:13:15;102151.16;;;8.57;65.53
64095;BME280;50353;51.420;5.682;2023-04-02T14:21:31;102164.19;;;8.00;65.17
64095;BME280;50353;51.420;5.682;2023-04-02T14:24:17;102161.22;;;8.72;66.98
64095;BME280;50353;51.420;5.682;2023-04-02T14:29:33;102163.84;;;8.72;65.87
64095;BME280;50353;51.420;5.682;2023-04-02T14:40:12;102182.53;;;8.35;67.04
64095;BME280;50353;51.420;5.682;2023-04-02T14:42:49;102164.28;;;8.58;65.50
64095;BME280;50353;51.420;5.682;2023-04-02T14:47:56;102168.50;;;8.64;64.22
64095;BME280;50353;51.420;5.682;2023-04-02T14:50:29;102163.97;;;8.69;64.43
64095;BME280;50353;51.420;5.682;2023-04-02T14:53:00;102170.53;;;9.12;64.30
64095;BME280;50353;51.420;5.682;2023-04-02T14:55:37;102167.97;;;8.53;62.92
64095;BME280;50353;51.420;5.682;2023-04-02T14:58:17;102177.94;;;8.11;65.48
64095;BME280;50353;51.420;5.682;2023-04-02T15:00:54;102178.38;;;8.26;62.61
64095;BME280;50353;51.420;5.682;2023-04-02T15:03:24;102188.44;;;8.43;64.12
64095;BME280;50353;51.420;5.682;2023-04-02T15:06:01;102190.19;;;8.42;64.24
64095;BME280;50353;51.420;5.682;2023-04-02T15:08:32;102195.19;;;8.22;62.35
64095;BME280;50353;51.420;5.682;2023-04-02T15:11:18;102201.03;;;8.32;63.09
64095;BME280;50353;51.420;5.682;2023-04-02T15:14:03;102192.81;;;8.45;63.80
64095;BME280;50353;51.420;5.682;2023-04-02T15:16:29;102187.47;;;8.47;62.80
64095;BME280;50353;51.420;5.682;2023-04-02T15:19:01;102188.59;;;8.68;62.08
64095;BME280;50353;51.420;5.682;2023-04-02T15:21:45;102192.69;;;8.49;64.32
64095;BME280;50353;51.420;5.682;2023-04-02T15:24:22;102191.56;;;8.86;62.46
64095;BME280;50353;51.420;5.682;2023-04-02T15:27:13;102196.09;;;8.82;62.28
64095;BME280;50353;51.420;5.682;2023-04-02T15:29:47;102190.22;;;8.72;63.08
64095;BME280;50353;51.420;5.682;2023-04-02T15:32:29;102201.91;;;9.20;61.37
64095;BME280;50353;51.420;5.682;2023-04-02T15:38:12;102196.50;;;8.96;63.71
64095;BME280;50353;51.420;5.682;2023-04-02T15:41:19;102207.09;;;8.67;61.00
64095;BME280;50353;51.420;5.682;2023-04-02T15:44:08;102203.66;;;8.33;64.47
64095;BME280;50353;51.420;5.682;2023-04-02T15:46:53;102212.06;;;8.48;62.43
64095;BME280;50353;51.420;5.682;2023-04-02T15:49:36;102198.19;;;8.39;63.37
64095;BME280;50353;51.420;5.682;2023-04-02T15:52:09;102208.34;;;8.83;63.09
64095;BME280;50353;51.420;5.682;2023-04-02T15:55:01;102214.94;;;8.68;62.29
64095;BME280;50353;51.420;5.682;2023-04-02T16:01:02;102211.31;;;8.72;60.96